sensor_id;sensor_type;location;lat;lon;timestamp;pressure;altitude;pressure_sealevel;temperature;humidity
43804;BME280;29430;52.924;-2.388;2023-05-20T00:03:43;100546.72;;;12.28;88.33
43804;BME280;29430;52.924;-2.388;2023-05-20T00:08:35;100554.50;;;12.17;88.63
43804;BME280;29430;52.924;-2.388;2023-05-20T00:13:27;100557.63;;;12.14;88.82
43804;BME280;29430;52.924;-2.388;2023-05-20T00:18:18;100546.53;;;12.16;89.85
43804;BME280;29430;52.924;-2.388;2023-05-20T00:23:10;100548.84;;;12.19;90.63
43804;BME280;29430;52.924;-2.388;2023-05-20T00:28:02;100550.72;;;12.25;90.68
43804;BME280;29430;52.924;-2.388;2023-05-20T00:32:54;100548.63;;;12.27;90.73
43804;BME280;29430;52.924;-2.388;2023-05-20T00:37:45;100554.47;;;12.31;90.62
43804;BME280;29430;52.924;-2.388;2023-05-20T00:42:37;100552.81;;;12.30;90.42
43804;BME280;29430;52.924;-2.388;2023-05-20T00:47:31;100557.81;;;12.26;90.36
43804;BME280;29430;52.924;-2.388;2023-05-20T00:52:24;100551.78;;;12.17;89.99
43804;BME280;29430;52.924;-2.388;2023-05-20T00:57:16;100553.00;;;12.08;90.31
43804;BME280;29430;52.924;-2.388;2023-05-20T01:02:09;100559.03;;;11.97;89.87
43804;BME280;29430;52.924;-2.388;2023-05-20T01:07:04;100555.47;;;11.90;89.70
43804;BME280;29430;52.924;-2.388;2023-05-20T01:16:58;100549.16;;;11.76;91.04
43804;BME280;29430;52.924;-2.388;2023-05-20T01:21:53;100554.53;;;11.69;91.65
43804;BME280;29430;52.924;-2.388;2023-05-20T01:26:45;100549.72;;;11.64;93.33
43804;BME280;29430;52.924;-2.388;2023-05-20T01:31:38;100544.91;;;11.60;93.51
43804;BME280;29430;52.924;-2.388;2023-05-20T01:36:31;100545.50;;;11.55;94.63
43804;BME280;29430;52.924;-2.388;2023-05-20T01:41:25;100546.31;;;11.49;94.61
43804;BME280;29430;52.924;-2.388;2023-05-20T01:46:17;100549.66;;;11.44;95.15
43804;BME280;29430;52.924;-2.388;2023-05-20T01:51:09;100553.19;;;11.38;96.20
43804;BME280;29430;52.924;-2.388;2023-05-20T01:56:01;100550.44;;;11.32;96.84
43804;BME280;29430;52.924;-2.388;2023-05-20T02:00:53;100554.38;;;11.29;95.89
43804;BME280;29430;52.924;-2.388;2023-05-20T02:05:45;100557.91;;;11.23;95.89
43804;BME280;29430;52.924;-2.388;2023-05-20T02:10:36;100558.72;;;11.17;95.22
43804;BME280;29430;52.924;-2.388;2023-05-20T02:15:28;100557.88;;;11.09;95.08
43804;BME280;29430;52.924;-2.388;2023-05-20T02:20:20;100555.69;;;10.98;96.23
43804;BME280;29430;52.924;-2.388;2023-05-20T02:25:11;100556.66;;;10.84;95.32
43804;BME280;29430;52.924;-2.388;2023-05-20T02:30:03;100553.00;;;10.70;95.30
43804;BME280;29430;52.924;-2.388;2023-05-20T02:34:55;100562.28;;;10.54;94.82
43804;BME280;29430;52.924;-2.388;2023-05-20T02:39:47;100549.66;;;10.39;95.14
43804;BME280;29430;52.924;-2.388;2023-05-20T02:44:39;100545.97;;;10.26;96.35
43804;BME280;29430;52.924;-2.388;2023-05-20T02:49:31;100543.78;;;10.14;96.59
43804;BME280;29430;52.924;-2.388;2023-05-20T02:54:23;100543.47;;;10.02;97.24
43804;BME280;29430;52.924;-2.388;2023-05-20T02:59:15;100535.06;;;9.97;97.39
43804;BME280;29430;52.924;-2.388;2023-05-20T03:04:07;100537.53;;;9.92;98.21
43804;BME280;29430;52.924;-2.388;2023-05-20T03:08:59;100535.59;;;9.86;98.81
43804;BME280;29430;52.924;-2.388;2023-05-20T03:13:50;100538.03;;;9.81;99.14
43804;BME280;29430;52.924;-2.388;2023-05-20T03:18:42;100526.47;;;9.72;99.33
43804;BME280;29430;52.924;-2.388;2023-05-20T03:23:34;100534.34;;;9.67;99.95
43804;BME280;29430;52.924;-2.388;2023-05-20T03:28:26;100533.03;;;9.63;99.75
43804;BME280;29430;52.924;-2.388;2023-05-20T03:33:17;100529.22;;;9.57;99.98
43804;BME280;29430;52.924;-2.388;2023-05-20T03:38:09;100529.59;;;9.54;99.83
43804;BME280;29430;52.924;-2.388;2023-05-20T03:43:01;100532.50;;;9.53;99.48
43804;BME280;29430;52.924;-2.388;2023-05-20T03:47:52;100532.06;;;9.49;99.40
43804;BME280;29430;52.924;-2.388;2023-05-20T03:52:44;100528.72;;;9.47;99.09
43804;BME280;29430;52.924;-2.388;2023-05-20T03:57:36;100529.72;;;9.46;98.97
43804;BME280;29430;52.924;-2.388;2023-05-20T04:02:28;100520.78;;;9.45;98.81
43804;BME280;29430;52.924;-2.388;2023-05-20T04:07:20;100520.78;;;9.45;98.81
43804;BME280;29430;52.924;-2.388;2023-05-20T04:12:12;100519.72;;;9.46;98.04
43804;BME280;29430;52.924;-2.388;2023-05-20T04:17:05;100520.97;;;9.44;98.14
43804;BME280;29430;52.924;-2.388;2023-05-20T04:21:57;100520.97;;;9.44;98.40
43804;BME280;29430;52.924;-2.388;2023-05-20T04:26:48;100514.06;;;9.41;98.82
43804;BME280;29430;52.924;-2.388;2023-05-20T04:31:40;100521.16;;;9.42;99.37
43804;BME280;29430;52.924;-2.388;2023-05-20T04:36:32;100518.63;;;9.41;99.88
43804;BME280;29430;52.924;-2.388;2023-05-20T04:41:25;100528.13;;;9.52;100.00
43804;BME280;29430;52.924;-2.388;2023-05-20T04:46:17;100525.25;;;9.75;99.12
43804;BME280;29430;52.924;-2.388;2023-05-20T04:51:10;100525.91;;;9.98;97.72
43804;BME280;29430;52.924;-2.388;2023-05-20T04:56:02;100528.22;;;10.23;95.96
43804;BME280;29430;52.924;-2.388;2023-05-20T05:00:54;100534.28;;;10.47;94.82
43804;BME280;29430;52.924;-2.388;2023-05-20T05:05:47;100513.13;;;10.70;92.81
43804;BME280;29430;52.924;-2.388;2023-05-20T05:10:39;100520.41;;;10.98;90.06
43804;BME280;29430;52.924;-2.388;2023-05-20T05:15:30;100529.94;;;11.29;87.12
43804;BME280;29430;52.924;-2.388;2023-05-20T05:20:22;100525.69;;;11.61;85.62
43804;BME280;29430;52.924;-2.388;2023-05-20T05:25:14;100532.47;;;11.92;83.81
43804;BME280;29430;52.924;-2.388;2023-05-20T05:30:07;100523.31;;;12.27;80.23
43804;BME280;29430;52.924;-2.388;2023-05-20T05:34:58;100517.84;;;12.53;78.39
43804;BME280;29430;52.924;-2.388;2023-05-20T05:39:50;100531.00;;;12.90;77.10
43804;BME280;29430;52.924;-2.388;2023-05-20T05:44:42;100530.66;;;13.25;72.43
43804;BME280;29430;52.924;-2.388;2023-05-20T05:49:34;100525.09;;;13.58;72.12
43804;BME280;29430;52.924;-2.388;2023-05-20T05:54:26;100532.44;;;13.96;67.80
43804;BME280;29430;52.924;-2.388;2023-05-20T05:59:18;100530.91;;;14.32;66.30
43804;BME280;29430;52.924;-2.388;2023-05-20T06:04:10;100527.75;;;14.61;66.22
43804;BME280;29430;52.924;-2.388;2023-05-20T06:09:02;100524.59;;;15.01;62.94
43804;BME280;29430;52.924;-2.388;2023-05-20T06:13:54;100516.84;;;15.35;61.60
43804;BME280;29430;52.924;-2.388;2023-05-20T06:18:46;100513.81;;;15.73;60.73
43804;BME280;29430;52.924;-2.388;2023-05-20T06:23:40;100512.78;;;16.17;58.21
43804;BME280;29430;52.924;-2.388;2023-05-20T06:28:32;100511.84;;;16.46;57.20
43804;BME280;29430;52.924;-2.388;2023-05-20T06:33:25;100514.00;;;16.80;56.26
43804;BME280;29430;52.924;-2.388;2023-05-20T06:38:18;100512.09;;;17.04;53.88
43804;BME280;29430;52.924;-2.388;2023-05-20T06:43:10;100517.84;;;17.31;53.60
43804;BME280;29430;52.924;-2.388;2023-05-20T06:48:02;100519.19;;;17.58;51.14
43804;BME280;29430;52.924;-2.388;2023-05-20T06:52:54;100508.53;;;17.73;52.04
43804;BME280;29430;52.924;-2.388;2023-05-20T06:57:45;100508.59;;;18.07;51.08
43804;BME280;29430;52.924;-2.388;2023-05-20T07:02:37;100501.38;;;18.52;49.81
43804;BME280;29430;52.924;-2.388;2023-05-20T07:07:29;100502.75;;;18.88;49.41
43804;BME280;29430;52.924;-2.388;2023-05-20T07:12:20;100496.53;;;19.37;47.84
43804;BME280;29430;52.924;-2.388;2023-05-20T07:17:12;100497.00;;;19.56;48.29
43804;BME280;29430;52.924;-2.388;2023-05-20T07:22:04;100492.47;;;19.72;45.94
43804;BME280;29430;52.924;-2.388;2023-05-20T07:26:56;100500.66;;;19.89;42.87
43804;BME280;29430;52.924;-2.388;2023-05-20T07:31:47;100496.56;;;20.24;43.31
43804;BME280;29430;52.924;-2.388;2023-05-20T07:36:39;100499.47;;;20.45;42.41
43804;BME280;29430;52.924;-2.388;2023-05-20T07:41:31;100506.66;;;20.46;40.85
43804;BME280;29430;52.924;-2.388;2023-05-20T07:46:23;100500.34;;;20.50;40.89
43804;BME280;29430;52.924;-2.388;2023-05-20T07:51:14;100496.69;;;20.77;39.89
43804;BME280;29430;52.924;-2.388;2023-05-20T07:56:06;100506.47;;;21.00;40.19
43804;BME280;29430;52.924;-2.388;2023-05-20T08:00:58;100507.34;;;21.11;40.54
43804;BME280;29430;52.924;-2.388;2023-05-20T08:05:50;100503.31;;;21.34;40.94
43804;BME280;29430;52.924;-2.388;2023-05-20T08:10:42;100504.56;;;21.79;39.58
43804;BME280;29430;52.924;-2.388;2023-05-20T08:15:34;100500.72;;;22.11;39.57
43804;BME280;29430;52.924;-2.388;2023-05-20T08:20:28;100508.78;;;22.44;38.69
43804;BME280;29430;52.924;-2.388;2023-05-20T08:25:20;100497.13;;;22.73;39.19
43804;BME280;29430;52.924;-2.388;2023-05-20T08:30:11;100505.72;;;22.56;37.87
43804;BME280;29430;52.924;-2.388;2023-05-20T08:35:06;100499.91;;;22.62;38.90
43804;BME280;29430;52.924;-2.388;2023-05-20T08:39:57;100492.75;;;22.51;38.06
43804;BME280;29430;52.924;-2.388;2023-05-20T08:44:51;100484.41;;;22.61;38.04
43804;BME280;29430;52.924;-2.388;2023-05-20T08:49:44;100486.81;;;22.99;37.75
43804;BME280;29430;52.924;-2.388;2023-05-20T08:54:43;100483.53;;;22.86;36.44
43804;BME280;29430;52.924;-2.388;2023-05-20T08:59:36;100467.47;;;22.88;37.77
43804;BME280;29430;52.924;-2.388;2023-05-20T09:04:28;100461.25;;;23.28;37.57
43804;BME280;29430;52.924;-2.388;2023-05-20T09:09:20;100476.63;;;23.54;36.55
43804;BME280;29430;52.924;-2.388;2023-05-20T09:14:11;100476.53;;;23.65;36.10
43804;BME280;29430;52.924;-2.388;2023-05-20T09:19:05;100470.16;;;23.69;36.26
43804;BME280;29430;52.924;-2.388;2023-05-20T09:24:00;100468.47;;;23.73;36.14
43804;BME280;29430;52.924;-2.388;2023-05-20T09:28:54;100466.31;;;23.60;35.82
43804;BME280;29430;52.924;-2.388;2023-05-20T09:33:48;100464.88;;;23.28;35.13
43804;BME280;29430;52.924;-2.388;2023-05-20T09:38:40;100461.06;;;23.09;36.68
43804;BME280;29430;52.924;-2.388;2023-05-20T09:43:32;100457.28;;;23.44;35.60
43804;BME280;29430;52.924;-2.388;2023-05-20T09:48:24;100446.75;;;23.51;34.94
43804;BME280;29430;52.924;-2.388;2023-05-20T09:53:16;100437.81;;;23.59;35.82
43804;BME280;29430;52.924;-2.388;2023-05-20T09:58:09;100434.50;;;23.57;35.26
43804;BME280;29430;52.924;-2.388;2023-05-20T10:03:06;100444.19;;;24.00;34.65
43804;BME280;29430;52.924;-2.388;2023-05-20T10:23:27;100429.06;;;23.82;34.34
43804;BME280;29430;52.924;-2.388;2023-05-20T10:28:31;100421.69;;;24.06;33.16
43804;BME280;29430;52.924;-2.388;2023-05-20T10:33:25;100422.22;;;24.08;33.21
43804;BME280;29430;52.924;-2.388;2023-05-20T10:38:18;100417.84;;;24.31;32.07
43804;BME280;29430;52.924;-2.388;2023-05-20T10:43:15;100411.66;;;24.40;30.00
43804;BME280;29430;52.924;-2.388;2023-05-20T10:48:28;100407.09;;;24.25;30.19
43804;BME280;29430;52.924;-2.388;2023-05-20T10:53:22;100404.81;;;24.32;29.54
43804;BME280;29430;52.924;-2.388;2023-05-20T10:58:16;100383.63;;;24.41;29.44
43804;BME280;29430;52.924;-2.388;2023-05-20T11:03:08;100395.09;;;24.35;30.14
43804;BME280;29430;52.924;-2.388;2023-05-20T11:08:04;100388.47;;;24.30;30.00
43804;BME280;29430;52.924;-2.388;2023-05-20T11:13:16;100384.91;;;24.25;29.84
43804;BME280;29430;52.924;-2.388;2023-05-20T11:18:09;100378.56;;;24.24;31.25
43804;BME280;29430;52.924;-2.388;2023-05-20T11:23:01;100371.19;;;24.39;29.84
43804;BME280;29430;52.924;-2.388;2023-05-20T11:27:53;100367.31;;;24.10;31.25
43804;BME280;29430;52.924;-2.388;2023-05-20T11:37:57;100352.31;;;24.41;30.45
43804;BME280;29430;52.924;-2.388;2023-05-20T11:42:58;100345.88;;;24.21;28.94
43804;BME280;29430;52.924;-2.388;2023-05-20T11:48:03;100353.56;;;24.00;28.50
43804;BME280;29430;52.924;-2.388;2023-05-20T11:52:57;100354.09;;;23.68;29.72
43804;BME280;29430;52.924;-2.388;2023-05-20T11:57:49;100346.53;;;23.44;30.87
43804;BME280;29430;52.924;-2.388;2023-05-20T12:02:43;100334.81;;;23.18;32.20
43804;BME280;29430;52.924;-2.388;2023-05-20T12:07:35;100342.78;;;23.30;31.44
43804;BME280;29430;52.924;-2.388;2023-05-20T12:12:27;100338.31;;;23.34;30.26
43804;BME280;29430;52.924;-2.388;2023-05-20T12:17:18;100325.78;;;22.97;31.80
43804;BME280;29430;52.924;-2.388;2023-05-20T12:22:10;100326.16;;;22.85;31.77
43804;BME280;29430;52.924;-2.388;2023-05-20T12:27:02;100326.34;;;22.99;32.58
43804;BME280;29430;52.924;-2.388;2023-05-20T12:31:56;100314.72;;;23.02;32.24
43804;BME280;29430;52.924;-2.388;2023-05-20T12:36:48;100314.41;;;23.03;32.22
43804;BME280;29430;52.924;-2.388;2023-05-20T12:41:40;100304.13;;;23.14;32.60
43804;BME280;29430;52.924;-2.388;2023-05-20T12:46:32;100309.56;;;22.80;31.42
43804;BME280;29430;52.924;-2.388;2023-05-20T12:51:24;100300.63;;;22.38;32.40
43804;BME280;29430;52.924;-2.388;2023-05-20T12:56:16;100307.59;;;22.10;32.95
43804;BME280;29430;52.924;-2.388;2023-05-20T13:01:09;100299.94;;;21.76;33.33
43804;BME280;29430;52.924;-2.388;2023-05-20T13:06:01;100293.31;;;21.56;33.57
43804;BME280;29430;52.924;-2.388;2023-05-20T13:10:53;100292.47;;;21.35;34.85
43804;BME280;29430;52.924;-2.388;2023-05-20T13:15:44;100286.38;;;21.13;34.40
43804;BME280;29430;52.924;-2.388;2023-05-20T13:20:37;100289.41;;;20.96;36.25
43804;BME280;29430;52.924;-2.388;2023-05-20T13:25:29;100275.59;;;20.85;36.51
43804;BME280;29430;52.924;-2.388;2023-05-20T13:30:22;100270.09;;;20.85;35.24
43804;BME280;29430;52.924;-2.388;2023-05-20T13:35:13;100277.81;;;20.88;36.56
43804;BME280;29430;52.924;-2.388;2023-05-20T13:40:07;100284.69;;;20.81;37.72
43804;BME280;29430;52.924;-2.388;2023-05-20T13:44:59;100265.56;;;20.53;37.53
43804;BME280;29430;52.924;-2.388;2023-05-20T13:49:51;100256.16;;;20.49;37.91
43804;BME280;29430;52.924;-2.388;2023-05-20T13:54:43;100258.38;;;20.47;38.26
43804;BME280;29430;52.924;-2.388;2023-05-20T13:59:37;100256.16;;;20.49;38.30
43804;BME280;29430;52.924;-2.388;2023-05-20T14:04:30;100253.94;;;20.46;38.01
43804;BME280;29430;52.924;-2.388;2023-05-20T14:09:21;100244.88;;;20.51;37.48
43804;BME280;29430;52.924;-2.388;2023-05-20T14:14:13;100249.06;;;20.64;37.60
43804;BME280;29430;52.924;-2.388;2023-05-20T14:19:05;100237.19;;;20.58;37.33
43804;BME280;29430;52.924;-2.388;2023-05-20T14:23:59;100238.81;;;20.54;36.19
43804;BME280;29430;52.924;-2.388;2023-05-20T14:28:51;100223.38;;;20.43;38.75
43804;BME280;29430;52.924;-2.388;2023-05-20T14:33:43;100213.44;;;20.42;38.55
43804;BME280;29430;52.924;-2.388;2023-05-20T14:38:35;100212.63;;;20.46;38.32
43804;BME280;29430;52.924;-2.388;2023-05-20T14:43:27;100212.88;;;20.45;39.59
43804;BME280;29430;52.924;-2.388;2023-05-20T14:48:19;100205.97;;;20.37;40.03
43804;BME280;29430;52.924;-2.388;2023-05-20T14:53:11;100194.72;;;20.44;40.17
43804;BME280;29430;52.924;-2.388;2023-05-20T14:58:02;100202.13;;;20.33;40.25
43804;BME280;29430;52.924;-2.388;2023-05-20T15:02:54;100187.22;;;20.29;39.89
43804;BME280;29430;52.924;-2.388;2023-05-20T15:07:46;100187.22;;;20.29;40.55
43804;BME280;29430;52.924;-2.388;2023-05-20T15:12:38;100183.63;;;20.23;40.58
43804;BME280;29430;52.924;-2.388;2023-05-20T15:17:30;100182.78;;;20.17;40.75
43804;BME280;29430;52.924;-2.388;2023-05-20T15:22:21;100177.78;;;20.04;40.30
43804;BME280;29430;52.924;-2.388;2023-05-20T15:27:13;100177.78;;;20.04;39.92
43804;BME280;29430;52.924;-2.388;2023-05-20T15:32:05;100166.50;;;20.11;40.77
43804;BME280;29430;52.924;-2.388;2023-05-20T15:36:57;100167.34;;;20.16;41.64
43804;BME280;29430;52.924;-2.388;2023-05-20T15:41:48;100167.56;;;19.99;40.24
43804;BME280;29430;52.924;-2.388;2023-05-20T15:46:42;100151.81;;;19.79;40.78
43804;BME280;29430;52.924;-2.388;2023-05-20T15:51:35;100163.13;;;19.88;40.23
43804;BME280;29430;52.924;-2.388;2023-05-20T15:56:28;100156.84;;;20.03;40.60
43804;BME280;29430;52.924;-2.388;2023-05-20T16:01:19;100162.06;;;20.04;40.06
43804;BME280;29430;52.924;-2.388;2023-05-20T16:06:13;100141.06;;;19.83;40.45
43804;BME280;29430;52.924;-2.388;2023-05-20T16:11:05;100139.44;;;19.87;41.19
43804;BME280;29430;52.924;-2.388;2023-05-20T16:15:58;100147.97;;;19.91;41.23
43804;BME280;29430;52.924;-2.388;2023-05-20T16:20:50;100149.88;;;19.80;41.01
43804;BME280;29430;52.924;-2.388;2023-05-20T16:25:42;100149.47;;;19.56;41.75
43804;BME280;29430;52.924;-2.388;2023-05-20T16:30:34;100140.84;;;19.42;42.10
43804;BME280;29430;52.924;-2.388;2023-05-20T16:35:26;100132.34;;;19.43;41.79
43804;BME280;29430;52.924;-2.388;2023-05-20T16:40:18;100141.69;;;19.47;42.86
43804;BME280;29430;52.924;-2.388;2023-05-20T16:45:10;100139.69;;;19.32;42.46
43804;BME280;29430;52.924;-2.388;2023-05-20T16:50:03;100129.69;;;19.21;42.91
43804;BME280;29430;52.924;-2.388;2023-05-20T16:54:55;100126.75;;;19.28;42.49
43804;BME280;29430;52.924;-2.388;2023-05-20T16:59:49;100121.25;;;19.28;42.23
43804;BME280;29430;52.924;-2.388;2023-05-20T17:04:41;100114.06;;;19.22;42.28
43804;BME280;29430;52.924;-2.388;2023-05-20T17:09:34;100122.59;;;19.25;41.88
43804;BME280;29430;52.924;-2.388;2023-05-20T17:14:25;100110.25;;;19.28;41.92
43804;BME280;29430;52.924;-2.388;2023-05-20T17:19:17;100106.63;;;19.22;42.22
43804;BME280;29430;52.924;-2.388;2023-05-20T17:24:09;100112.09;;;19.17;42.10
43804;BME280;29430;52.924;-2.388;2023-05-20T17:29:00;100116.72;;;19.11;42.59
43804;BME280;29430;52.924;-2.388;2023-05-20T17:33:52;100112.84;;;19.07;42.74
43804;BME280;29430;52.924;-2.388;2023-05-20T17:38:44;100105.91;;;19.00;43.28
43804;BME280;29430;52.924;-2.388;2023-05-20T17:43:36;100106.97;;;18.93;42.99
43804;BME280;29430;52.924;-2.388;2023-05-20T17:48:27;100113.47;;;18.82;43.34
43804;BME280;29430;52.924;-2.388;2023-05-20T17:53:21;100113.09;;;18.73;43.50
43804;BME280;29430;52.924;-2.388;2023-05-20T17:58:13;100121.06;;;18.70;43.05
43804;BME280;29430;52.924;-2.388;2023-05-20T18:03:04;100114.38;;;18.60;42.78
43804;BME280;29430;52.924;-2.388;2023-05-20T18:07:56;100128.34;;;18.54;42.25
43804;BME280;29430;52.924;-2.388;2023-05-20T18:12:48;100114.50;;;18.43;42.25
43804;BME280;29430;52.924;-2.388;2023-05-20T18:17:40;100117.47;;;18.37;42.14
43804;BME280;29430;52.924;-2.388;2023-05-20T18:22:32;100122.59;;;18.28;42.14
43804;BME280;29430;52.924;-2.388;2023-05-20T18:27:23;100109.34;;;18.20;42.36
43804;BME280;29430;52.924;-2.388;2023-05-20T18:32:16;100111.69;;;18.11;41.72
43804;BME280;29430;52.924;-2.388;2023-05-20T18:37:07;100117.31;;;17.99;42.09
43804;BME280;29430;52.924;-2.388;2023-05-20T18:41:59;100113.88;;;17.87;41.89
43804;BME280;29430;52.924;-2.388;2023-05-20T18:46:51;100111.28;;;17.75;41.84
43804;BME280;29430;52.924;-2.388;2023-05-20T18:51:43;100101.81;;;17.66;41.96
43804;BME280;29430;52.924;-2.388;2023-05-20T18:56:34;100108.84;;;17.57;42.24
43804;BME280;29430;52.924;-2.388;2023-05-20T19:01:27;100109.53;;;17.47;42.66
43804;BME280;29430;52.924;-2.388;2023-05-20T19:06:19;100121.19;;;17.37;43.82
43804;BME280;29430;52.924;-2.388;2023-05-20T19:11:12;100119.41;;;17.26;44.31
43804;BME280;29430;52.924;-2.388;2023-05-20T19:16:04;100116.50;;;17.15;44.59
43804;BME280;29430;52.924;-2.388;2023-05-20T19:20:55;100120.50;;;17.08;45.35
43804;BME280;29430;52.924;-2.388;2023-05-20T19:25:47;100115.19;;;17.01;45.60
43804;BME280;29430;52.924;-2.388;2023-05-20T19:30:39;100113.59;;;16.88;46.33
43804;BME280;29430;52.924;-2.388;2023-05-20T19:35:31;100122.22;;;16.80;46.65
43804;BME280;29430;52.924;-2.388;2023-05-20T19:40:24;100125.38;;;16.72;47.13
43804;BME280;29430;52.924;-2.388;2023-05-20T19:45:16;100135.34;;;16.61;47.15
43804;BME280;29430;52.924;-2.388;2023-05-20T19:50:08;100136.56;;;16.53;47.81
43804;BME280;29430;52.924;-2.388;2023-05-20T19:55:01;100142.66;;;16.43;47.72
43804;BME280;29430;52.924;-2.388;2023-05-20T19:59:53;100150.13;;;16.31;47.96
43804;BME280;29430;52.924;-2.388;2023-05-20T20:04:44;100139.72;;;16.16;48.67
43804;BME280;29430;52.924;-2.388;2023-05-20T20:09:37;100148.53;;;16.06;48.90
43804;BME280;29430;52.924;-2.388;2023-05-20T20:14:29;100150.50;;;15.94;49.49
43804;BME280;29430;52.924;-2.388;2023-05-20T20:19:21;100158.50;;;15.84;49.69
43804;BME280;29430;52.924;-2.388;2023-05-20T20:24:14;100147.56;;;15.72;49.65
43804;BME280;29430;52.924;-2.388;2023-05-20T20:29:06;100146.75;;;15.60;50.32
43804;BME280;29430;52.924;-2.388;2023-05-20T20:33:58;100143.69;;;15.44;50.51
43804;BME280;29430;52.924;-2.388;2023-05-20T20:38:50;100163.41;;;15.34;50.37
43804;BME280;29430;52.924;-2.388;2023-05-20T20:43:42;100163.66;;;15.21;50.46
43804;BME280;29430;52.924;-2.388;2023-05-20T20:48:37;100165.31;;;15.10;50.82
43804;BME280;29430;52.924;-2.388;2023-05-20T20:53:29;100177.06;;;14.99;50.88
43804;BME280;29430;52.924;-2.388;2023-05-20T20:58:21;100175.41;;;14.86;50.70
43804;BME280;29430;52.924;-2.388;2023-05-20T21:03:13;100182.63;;;14.80;51.20
43804;BME280;29430;52.924;-2.388;2023-05-20T21:08:05;100182.72;;;14.74;51.31
43804;BME280;29430;52.924;-2.388;2023-05-20T21:12:59;100181.41;;;14.64;51.30
43804;BME280;29430;52.924;-2.388;2023-05-20T21:17:51;100178.13;;;14.56;51.71
43804;BME280;29430;52.924;-2.388;2023-05-20T21:22:42;100182.63;;;14.50;51.69
43804;BME280;29430;52.924;-2.388;2023-05-20T21:27:34;100188.19;;;14.43;51.89
43804;BME280;29430;52.924;-2.388;2023-05-20T21:32:26;100182.19;;;14.35;52.18
43804;BME280;29430;52.924;-2.388;2023-05-20T21:37:18;100177.31;;;14.25;52.84
43804;BME280;29430;52.924;-2.388;2023-05-20T21:42:09;100180.13;;;14.18;52.94
43804;BME280;29430;52.924;-2.388;2023-05-20T21:47:01;100182.78;;;14.06;53.54
43804;BME280;29430;52.924;-2.388;2023-05-20T21:51:53;100175.63;;;13.93;53.32
43804;BME280;29430;52.924;-2.388;2023-05-20T21:56:44;100161.44;;;13.85;53.82
43804;BME280;29430;52.924;-2.388;2023-05-20T22:01:36;100160.69;;;13.77;54.22
43804;BME280;29430;52.924;-2.388;2023-05-20T22:06:28;100161.38;;;13.73;54.38
43804;BME280;29430;52.924;-2.388;2023-05-20T22:11:19;100167.72;;;13.67;54.66
43804;BME280;29430;52.924;-2.388;2023-05-20T22:16:11;100160.69;;;13.59;55.04
43804;BME280;29430;52.924;-2.388;2023-05-20T22:21:04;100160.78;;;13.52;55.62
43804;BME280;29430;52.924;-2.388;2023-05-20T22:25:57;100160.63;;;13.47;55.93
43804;BME280;29430;52.924;-2.388;2023-05-20T22:30:48;100150.22;;;13.37;56.19
43804;BME280;29430;52.924;-2.388;2023-05-20T22:35:40;100146.09;;;13.28;56.78
43804;BME280;29430;52.924;-2.388;2023-05-20T22:40:32;100150.16;;;13.19;56.79
43804;BME280;29430;52.924;-2.388;2023-05-20T22:45:24;100153.03;;;13.05;56.97
43804;BME280;29430;52.924;-2.388;2023-05-20T22:50:15;100170.72;;;12.96;57.33
43804;BME280;29430;52.924;-2.388;2023-05-20T22:55:08;100163.03;;;12.86;57.27
43804;BME280;29430;52.924;-2.388;2023-05-20T23:00:03;100159.53;;;12.79;57.78
43804;BME280;29430;52.924;-2.388;2023-05-20T23:04:55;100157.91;;;12.71;58.70
43804;BME280;29430;52.924;-2.388;2023-05-20T23:09:47;100162.78;;;12.63;58.89
43804;BME280;29430;52.924;-2.388;2023-05-20T23:14:39;100160.13;;;12.56;58.61
43804;BME280;29430;52.924;-2.388;2023-05-20T23:19:30;100164.56;;;12.50;58.58
43804;BME280;29430;52.924;-2.388;2023-05-20T23:24:22;100152.03;;;12.43;58.52
43804;BME280;29430;52.924;-2.388;2023-05-20T23:29:14;100153.13;;;12.35;58.80
43804;BME280;29430;52.924;-2.388;2023-05-20T23:34:05;100151.50;;;12.27;59.05
43804;BME280;29430;52.924;-2.388;2023-05-20T23:38:57;100158.22;;;12.25;59.38
43804;BME280;29430;52.924;-2.388;2023-05-20T23:43:49;100153.63;;;12.18;59.46
43804;BME280;29430;52.924;-2.388;2023-05-20T23:48:43;100149.50;;;12.09;59.95
43804;BME280;29430;52.924;-2.388;2023-05-20T23:53:35;100146.81;;;12.03;60.85
43804;BME280;29430;52.924;-2.388;2023-05-20T23:58:27;100152.75;;;11.93;61.54
